createdAt,value
2019-05-13T00:00:04.400Z,2.23
2019-05-13T00:05:23.429Z,2.17
2019-05-13T00:10:43.623Z,1.93
2019-05-13T00:16:03.704Z,2.07
2019-05-13T00:21:23.217Z,2.03
2019-05-13T00:26:43.823Z,2.00
2019-05-13T00:32:04.446Z,2.00
2019-05-13T00:37:24.481Z,1.60
2019-05-13T00:42:44.180Z,2.05
2019-05-13T00:48:04.503Z,2.07
2019-05-13T00:53:23.794Z,2.13
2019-05-13T00:58:43.708Z,2.30
2019-05-13T01:04:03.981Z,2.33
2019-05-13T01:09:23.753Z,1.80
2019-05-13T01:14:43.267Z,2.00
2019-05-13T01:20:04.038Z,2.37
2019-05-13T01:25:24.253Z,2.53
2019-05-13T01:30:43.856Z,3.00
2019-05-13T01:36:05.233Z,2.80
2019-05-13T01:41:24.070Z,2.70
2019-05-13T01:46:43.674Z,2.37
2019-05-13T01:52:03.893Z,2.20
2019-05-13T01:57:23.831Z,2.43
2019-05-13T02:02:44.444Z,2.80
2019-05-13T02:08:04.434Z,2.70
2019-05-13T02:13:24.846Z,2.90
2019-05-13T02:18:44.406Z,2.90
2019-05-13T02:24:04.320Z,3.27
2019-05-13T02:29:24.508Z,2.97
2019-05-13T02:34:44.005Z,3.57
2019-05-13T02:40:03.930Z,3.70
2019-05-13T02:45:22.903Z,3.83
2019-05-13T02:50:44.122Z,3.37
2019-05-13T02:56:02.943Z,3.60
2019-05-13T03:01:22.456Z,3.93
2019-05-13T03:06:43.491Z,3.67
2019-05-13T03:12:04.158Z,3.37
2019-05-13T03:17:32.931Z,3.77
2019-05-13T03:22:52.583Z,3.73
2019-05-13T03:28:13.463Z,4.23
2019-05-13T03:33:36.662Z,3.47
2019-05-13T03:39:05.092Z,3.67
2019-05-13T03:44:13.775Z,3.20
2019-05-13T03:49:35.702Z,3.87
2019-05-13T03:54:55.518Z,4.50
2019-05-13T04:00:14.704Z,4.50
2019-05-13T04:05:33.731Z,5.83
2019-05-13T04:10:52.718Z,5.40
2019-05-13T04:16:12.712Z,5.87
2019-05-13T04:21:33.794Z,6.10
2019-05-13T04:26:53.371Z,15.03
2019-05-13T04:32:13.112Z,13.13
2019-05-13T04:37:33.070Z,9.75
2019-05-13T04:42:53.337Z,3.90
2019-05-13T04:48:12.878Z,2.80
2019-05-13T04:53:33.394Z,2.50
2019-05-13T04:58:53.054Z,2.50
2019-05-13T05:04:24.343Z,2.00
2019-05-13T05:10:13.278Z,2.30
2019-05-13T05:15:44.745Z,2.67
2019-05-13T05:21:21.860Z,2.00
2019-05-13T05:27:03.022Z,2.37
2019-05-13T05:32:24.984Z,2.50
2019-05-13T05:37:49.153Z,2.43
2019-05-13T05:43:11.490Z,3.37
2019-05-13T05:48:32.459Z,3.23
2019-05-13T05:53:54.047Z,3.73
2019-05-13T05:59:12.856Z,3.70
2019-05-13T06:04:32.656Z,3.97
2019-05-13T06:09:54.045Z,4.00
2019-05-13T06:15:12.690Z,4.47
2019-05-13T06:20:31.761Z,4.73
2019-05-13T06:25:52.730Z,4.57
2019-05-13T06:31:12.414Z,4.63
2019-05-13T06:36:31.773Z,4.33
2019-05-13T06:41:51.764Z,4.87
2019-05-13T06:47:11.364Z,4.93
2019-05-13T06:52:31.997Z,4.63
2019-05-13T06:57:51.850Z,3.83
2019-05-13T07:03:12.724Z,4.83
2019-05-13T07:08:32.034Z,3.87
2019-05-13T07:13:51.644Z,4.60
2019-05-13T07:19:11.704Z,3.97
2019-05-13T07:24:32.240Z,3.73
2019-05-13T07:29:53.590Z,3.20
2019-05-13T07:35:13.890Z,3.17
2019-05-13T07:40:32.298Z,3.20
2019-05-13T07:45:51.432Z,3.73
2019-05-13T07:51:11.983Z,3.23
2019-05-13T07:56:32.472Z,2.57
2019-05-13T08:01:52.217Z,3.03
2019-05-13T08:07:11.989Z,2.70
2019-05-13T08:12:31.936Z,2.23
2019-05-13T08:17:52.450Z,2.80
2019-05-13T08:23:12.204Z,2.10
2019-05-13T08:28:32.358Z,2.00
2019-05-13T08:33:52.004Z,2.43
2019-05-13T08:39:12.688Z,2.20
2019-05-13T08:44:32.229Z,2.53
2019-05-13T08:49:52.017Z,1.97
2019-05-13T08:55:15.576Z,2.10
2019-05-13T09:00:49.431Z,2.00
2019-05-13T09:06:08.100Z,2.07
2019-05-13T09:11:26.758Z,2.23
2019-05-13T09:16:45.449Z,2.47
2019-05-13T09:22:04.100Z,2.07
2019-05-13T09:27:22.759Z,1.90
2019-05-13T09:32:42.587Z,1.83
2019-05-13T09:38:03.251Z,2.00
2019-05-13T09:43:22.276Z,2.12
2019-05-13T09:48:42.505Z,1.70
2019-05-13T09:54:01.496Z,2.00
2019-05-13T09:59:22.197Z,2.30
2019-05-13T10:04:43.368Z,1.80
2019-05-13T10:10:02.015Z,1.77
2019-05-13T10:15:22.166Z,1.50
2019-05-13T10:20:46.572Z,2.13
2019-05-13T10:26:08.270Z,2.00
2019-05-13T10:31:27.010Z,1.70
2019-05-13T10:36:47.189Z,1.53
2019-05-13T10:42:05.839Z,2.37
2019-05-13T10:47:24.765Z,2.00
2019-05-13T10:52:43.500Z,2.13
2019-05-13T10:58:02.574Z,2.00
2019-05-13T11:03:23.039Z,1.80
2019-05-13T11:08:42.263Z,1.80
2019-05-13T11:14:10.638Z,1.50
2019-05-13T11:19:22.987Z,2.00
2019-05-13T11:24:43.201Z,1.50
2019-05-13T11:30:05.480Z,1.40
2019-05-13T11:35:23.010Z,1.40
2019-05-13T11:40:42.216Z,1.30
2019-05-13T11:46:02.273Z,1.53
2019-05-13T11:51:24.060Z,1.50
2019-05-13T11:56:48.910Z,1.57
2019-05-13T12:02:04.566Z,1.40
2019-05-13T12:07:23.249Z,1.83
2019-05-13T12:12:43.898Z,1.00
2019-05-13T12:18:03.023Z,1.77
2019-05-13T12:23:21.704Z,1.73
2019-05-13T12:28:42.126Z,1.80
2019-05-13T12:34:03.507Z,1.57
2019-05-13T12:39:23.754Z,1.37
2019-05-13T12:45:00.323Z,1.80
2019-05-13T12:50:03.490Z,1.50
2019-05-13T12:55:23.119Z,1.80
2019-05-13T13:00:43.399Z,1.93
2019-05-13T13:06:25.672Z,1.50
2019-05-13T13:11:24.185Z,1.87
2019-05-13T13:16:43.296Z,1.90
2019-05-13T13:22:06.853Z,1.50
2019-05-13T13:27:46.880Z,1.67
2019-05-13T13:32:45.223Z,1.77
2019-05-13T13:38:04.340Z,1.37
2019-05-13T13:43:24.693Z,1.53
2019-05-13T13:48:44.361Z,1.40
2019-05-13T13:54:03.400Z,1.63
2019-05-13T13:59:24.520Z,1.53
2019-05-13T14:04:44.066Z,1.67
2019-05-13T14:10:06.962Z,1.63
2019-05-13T14:15:23.614Z,1.67
2019-05-13T14:20:42.976Z,1.80
2019-05-13T14:26:01.798Z,1.53
2019-05-13T14:31:21.397Z,2.00
2019-05-13T14:36:40.188Z,1.90
2019-05-13T14:41:59.032Z,1.80
2019-05-13T14:47:17.686Z,1.70
2019-05-13T14:52:36.350Z,1.53
2019-05-13T14:57:55.001Z,1.80
2019-05-13T15:03:13.828Z,1.73
2019-05-13T15:08:33.075Z,1.60
2019-05-13T15:13:52.268Z,1.67
2019-05-13T15:19:12.096Z,1.70
2019-05-13T15:24:32.331Z,1.55
2019-05-13T15:29:51.782Z,1.43
2019-05-13T15:35:13.243Z,1.70
2019-05-13T15:40:31.319Z,2.03
2019-05-13T15:45:51.280Z,1.70
2019-05-13T15:51:11.282Z,1.90
2019-05-13T15:56:31.468Z,1.57
2019-05-13T16:01:52.528Z,1.63
2019-05-13T16:07:12.274Z,1.67
2019-05-13T16:12:32.112Z,1.80
2019-05-13T16:17:52.108Z,1.43
2019-05-13T16:23:12.609Z,1.40
2019-05-13T16:28:32.501Z,1.43
2019-05-13T16:33:52.265Z,1.77
2019-05-13T16:39:12.307Z,1.60
2019-05-13T16:44:31.896Z,1.60
2019-05-13T16:49:50.837Z,1.87
2019-05-13T16:55:12.591Z,2.00
2019-05-13T17:00:31.731Z,2.00
2019-05-13T17:05:51.372Z,1.70
2019-05-13T17:11:11.748Z,1.80
2019-05-13T17:16:31.722Z,1.67
2019-05-13T17:21:52.035Z,1.80
2019-05-13T17:27:12.184Z,1.52
2019-05-13T17:32:30.880Z,2.00
2019-05-13T17:37:51.215Z,1.97
2019-05-13T17:43:11.964Z,2.20
2019-05-13T17:48:33.034Z,1.80
2019-05-13T17:53:52.561Z,1.70
2019-05-13T17:59:11.715Z,1.77
2019-05-13T18:04:31.491Z,1.90
2019-05-13T18:09:52.038Z,1.90
2019-05-13T18:15:11.497Z,1.60
2019-05-13T18:20:32.176Z,1.90
2019-05-13T18:25:51.461Z,2.20
2019-05-13T18:31:12.373Z,1.80
2019-05-13T18:36:31.775Z,1.40
2019-05-13T18:41:51.939Z,1.33
2019-05-13T18:47:12.076Z,1.70
2019-05-13T18:52:32.574Z,1.80
2019-05-13T18:57:51.933Z,1.70
2019-05-13T19:03:16.226Z,1.57
2019-05-13T19:08:34.853Z,1.60
2019-05-13T19:13:53.870Z,1.50
2019-05-13T19:19:19.713Z,1.60
2019-05-13T19:24:36.258Z,1.53
2019-05-13T19:29:54.906Z,1.50
2019-05-13T19:35:13.650Z,1.57
2019-05-13T19:40:32.513Z,1.53
2019-05-13T19:45:51.883Z,1.87
2019-05-13T19:51:10.652Z,2.10
2019-05-13T19:56:31.780Z,1.77
2019-05-13T20:01:51.684Z,1.45
2019-05-13T20:07:11.871Z,1.73
2019-05-13T20:12:31.265Z,2.00
2019-05-13T20:17:52.034Z,1.63
2019-05-13T20:23:12.056Z,1.87
2019-05-13T20:28:31.709Z,2.20
2019-05-13T20:33:51.594Z,1.67
2019-05-13T20:39:11.558Z,1.70
2019-05-13T20:44:31.303Z,1.60
2019-05-13T20:49:59.055Z,1.70
2019-05-13T20:55:10.876Z,1.63
2019-05-13T21:00:31.428Z,1.50
2019-05-13T21:05:51.898Z,1.67
2019-05-13T21:11:11.521Z,1.63
2019-05-13T21:16:30.153Z,1.57
2019-05-13T21:21:50.984Z,1.67
2019-05-13T21:27:12.174Z,1.60
2019-05-13T21:32:29.899Z,1.90
2019-05-13T21:37:48.520Z,1.53
2019-05-13T21:43:07.207Z,1.40
2019-05-13T21:48:26.119Z,1.73
2019-05-13T21:53:44.813Z,1.60
2019-05-13T21:59:03.471Z,1.77
2019-05-13T22:04:25.424Z,1.50
2019-05-13T22:09:44.162Z,1.67
2019-05-13T22:15:02.783Z,1.60
2019-05-13T22:20:21.516Z,1.80
2019-05-13T22:25:43.387Z,1.60
2019-05-13T22:31:01.378Z,1.47
2019-05-13T22:36:21.279Z,1.60
2019-05-13T22:41:42.104Z,1.60
2019-05-13T22:47:02.454Z,1.50
2019-05-13T22:52:21.859Z,1.40
2019-05-13T22:57:41.956Z,1.40
2019-05-13T23:03:01.609Z,1.80
2019-05-13T23:08:21.695Z,1.60
2019-05-13T23:13:42.252Z,1.80
2019-05-13T23:19:00.953Z,1.53
2019-05-13T23:24:21.903Z,1.53
2019-05-13T23:29:41.201Z,1.63
2019-05-13T23:35:02.031Z,1.60
2019-05-13T23:40:20.517Z,1.65
2019-05-13T23:45:39.096Z,1.37
2019-05-13T23:50:57.662Z,1.37
2019-05-13T23:56:16.337Z,1.90
